sensor_id;sensor_type;location;lat;lon;timestamp;P1;durP1;ratioP1;P2;durP2;ratioP2
62861;SDS011;48953;53.110;5.592;2023-07-24T00:01:00;10.18;;;3.60;;
62861;SDS011;48953;53.110;5.592;2023-07-24T00:03:26;9.98;;;3.28;;
62861;SDS011;48953;53.110;5.592;2023-07-24T00:05:52;9.63;;;4.07;;
62861;SDS011;48953;53.110;5.592;2023-07-24T00:08:18;9.80;;;3.88;;
62861;SDS011;48953;53.110;5.592;2023-07-24T00:10:44;8.10;;;3.45;;
62861;SDS011;48953;53.110;5.592;2023-07-24T00:13:10;9.07;;;3.67;;
62861;SDS011;48953;53.110;5.592;2023-07-24T00:15:38;9.95;;;3.40;;
62861;SDS011;48953;53.110;5.592;2023-07-24T00:18:04;14.35;;;3.75;;
62861;SDS011;48953;53.110;5.592;2023-07-24T00:20:30;8.30;;;3.58;;
62861;SDS011;48953;53.110;5.592;2023-07-24T00:22:56;12.75;;;3.30;;
62861;SDS011;48953;53.110;5.592;2023-07-24T00:25:22;8.60;;;3.58;;
62861;SDS011;48953;53.110;5.592;2023-07-24T00:27:48;13.02;;;3.65;;
62861;SDS011;48953;53.110;5.592;2023-07-24T00:30:14;8.75;;;3.75;;
62861;SDS011;48953;53.110;5.592;2023-07-24T00:32:40;7.65;;;3.75;;
62861;SDS011;48953;53.110;5.592;2023-07-24T00:35:06;9.68;;;3.72;;
62861;SDS011;48953;53.110;5.592;2023-07-24T00:37:33;6.70;;;3.40;;
62861;SDS011;48953;53.110;5.592;2023-07-24T00:39:59;10.65;;;3.47;;
62861;SDS011;48953;53.110;5.592;2023-07-24T00:42:25;8.65;;;3.33;;
62861;SDS011;48953;53.110;5.592;2023-07-24T00:44:51;8.75;;;3.25;;
62861;SDS011;48953;53.110;5.592;2023-07-24T00:47:17;7.25;;;3.90;;
62861;SDS011;48953;53.110;5.592;2023-07-24T00:49:43;10.10;;;3.63;;
62861;SDS011;48953;53.110;5.592;2023-07-24T00:52:10;11.68;;;3.80;;
62861;SDS011;48953;53.110;5.592;2023-07-24T00:54:36;8.65;;;4.00;;
62861;SDS011;48953;53.110;5.592;2023-07-24T00:57:03;9.15;;;4.25;;
62861;SDS011;48953;53.110;5.592;2023-07-24T00:59:29;13.85;;;4.72;;
62861;SDS011;48953;53.110;5.592;2023-07-24T01:01:55;10.32;;;4.07;;
62861;SDS011;48953;53.110;5.592;2023-07-24T01:04:21;12.23;;;4.50;;
62861;SDS011;48953;53.110;5.592;2023-07-24T01:06:48;10.98;;;4.13;;
62861;SDS011;48953;53.110;5.592;2023-07-24T01:09:14;9.88;;;4.72;;
62861;SDS011;48953;53.110;5.592;2023-07-24T01:11:46;11.35;;;4.65;;
62861;SDS011;48953;53.110;5.592;2023-07-24T01:14:18;8.40;;;3.95;;
62861;SDS011;48953;53.110;5.592;2023-07-24T01:16:47;10.27;;;4.70;;
62861;SDS011;48953;53.110;5.592;2023-07-24T01:19:20;12.23;;;4.38;;
62861;SDS011;48953;53.110;5.592;2023-07-24T01:21:58;10.70;;;4.53;;
62861;SDS011;48953;53.110;5.592;2023-07-24T01:24:36;9.88;;;4.78;;
62861;SDS011;48953;53.110;5.592;2023-07-24T01:27:06;10.23;;;4.63;;
62861;SDS011;48953;53.110;5.592;2023-07-24T01:29:32;11.57;;;4.90;;
62861;SDS011;48953;53.110;5.592;2023-07-24T01:31:58;11.55;;;4.95;;
62861;SDS011;48953;53.110;5.592;2023-07-24T01:34:24;11.20;;;5.53;;
62861;SDS011;48953;53.110;5.592;2023-07-24T01:36:50;14.57;;;4.82;;
62861;SDS011;48953;53.110;5.592;2023-07-24T01:39:17;11.48;;;4.75;;
62861;SDS011;48953;53.110;5.592;2023-07-24T01:41:44;17.80;;;5.47;;
62861;SDS011;48953;53.110;5.592;2023-07-24T01:44:10;9.70;;;5.10;;
62861;SDS011;48953;53.110;5.592;2023-07-24T01:46:36;11.63;;;4.88;;
62861;SDS011;48953;53.110;5.592;2023-07-24T01:49:02;11.20;;;4.65;;
62861;SDS011;48953;53.110;5.592;2023-07-24T01:51:28;12.90;;;5.43;;
62861;SDS011;48953;53.110;5.592;2023-07-24T01:53:54;11.30;;;4.28;;
62861;SDS011;48953;53.110;5.592;2023-07-24T01:56:20;13.80;;;4.72;;
62861;SDS011;48953;53.110;5.592;2023-07-24T01:58:46;11.80;;;4.13;;
62861;SDS011;48953;53.110;5.592;2023-07-24T02:01:12;11.93;;;4.70;;
62861;SDS011;48953;53.110;5.592;2023-07-24T02:03:39;10.93;;;4.50;;
62861;SDS011;48953;53.110;5.592;2023-07-24T02:06:05;11.57;;;4.53;;
62861;SDS011;48953;53.110;5.592;2023-07-24T02:08:31;9.52;;;4.78;;
62861;SDS011;48953;53.110;5.592;2023-07-24T02:10:59;12.20;;;5.13;;
62861;SDS011;48953;53.110;5.592;2023-07-24T02:13:25;12.52;;;5.00;;
62861;SDS011;48953;53.110;5.592;2023-07-24T02:15:51;9.80;;;5.00;;
62861;SDS011;48953;53.110;5.592;2023-07-24T02:18:18;13.93;;;5.05;;
62861;SDS011;48953;53.110;5.592;2023-07-24T02:20:50;9.77;;;4.80;;
62861;SDS011;48953;53.110;5.592;2023-07-24T02:23:16;16.20;;;5.25;;
62861;SDS011;48953;53.110;5.592;2023-07-24T02:25:44;13.32;;;4.50;;
62861;SDS011;48953;53.110;5.592;2023-07-24T02:28:10;13.45;;;4.82;;
62861;SDS011;48953;53.110;5.592;2023-07-24T02:30:39;13.13;;;4.90;;
62861;SDS011;48953;53.110;5.592;2023-07-24T02:33:05;11.97;;;4.63;;
62861;SDS011;48953;53.110;5.592;2023-07-24T02:35:31;8.70;;;4.72;;
62861;SDS011;48953;53.110;5.592;2023-07-24T02:37:57;10.40;;;4.28;;
62861;SDS011;48953;53.110;5.592;2023-07-24T02:40:23;10.77;;;4.55;;
62861;SDS011;48953;53.110;5.592;2023-07-24T02:42:49;7.72;;;4.45;;
62861;SDS011;48953;53.110;5.592;2023-07-24T02:45:15;12.50;;;4.60;;
62861;SDS011;48953;53.110;5.592;2023-07-24T02:47:41;11.40;;;4.55;;
62861;SDS011;48953;53.110;5.592;2023-07-24T02:50:08;10.70;;;4.72;;
62861;SDS011;48953;53.110;5.592;2023-07-24T02:52:34;14.50;;;5.10;;
62861;SDS011;48953;53.110;5.592;2023-07-24T02:55:00;14.93;;;4.65;;
62861;SDS011;48953;53.110;5.592;2023-07-24T02:57:26;12.30;;;4.55;;
62861;SDS011;48953;53.110;5.592;2023-07-24T02:59:52;10.07;;;4.95;;
62861;SDS011;48953;53.110;5.592;2023-07-24T03:02:18;12.73;;;5.25;;
62861;SDS011;48953;53.110;5.592;2023-07-24T03:04:44;9.82;;;4.47;;
62861;SDS011;48953;53.110;5.592;2023-07-24T03:07:10;12.55;;;5.10;;
62861;SDS011;48953;53.110;5.592;2023-07-24T03:09:36;10.05;;;4.28;;
62861;SDS011;48953;53.110;5.592;2023-07-24T03:12:02;10.20;;;4.50;;
62861;SDS011;48953;53.110;5.592;2023-07-24T03:14:28;12.75;;;4.57;;
62861;SDS011;48953;53.110;5.592;2023-07-24T03:16:54;12.02;;;4.45;;
62861;SDS011;48953;53.110;5.592;2023-07-24T03:19:20;16.38;;;4.25;;
62861;SDS011;48953;53.110;5.592;2023-07-24T03:21:46;11.73;;;4.40;;
62861;SDS011;48953;53.110;5.592;2023-07-24T03:24:12;16.98;;;4.97;;
62861;SDS011;48953;53.110;5.592;2023-07-24T03:26:38;14.73;;;4.97;;
62861;SDS011;48953;53.110;5.592;2023-07-24T03:29:05;15.00;;;4.90;;
62861;SDS011;48953;53.110;5.592;2023-07-24T03:31:31;13.43;;;5.30;;
62861;SDS011;48953;53.110;5.592;2023-07-24T03:33:57;11.82;;;4.93;;
62861;SDS011;48953;53.110;5.592;2023-07-24T03:36:23;12.45;;;4.70;;
62861;SDS011;48953;53.110;5.592;2023-07-24T03:38:49;11.55;;;4.38;;
62861;SDS011;48953;53.110;5.592;2023-07-24T03:41:15;13.15;;;4.72;;
62861;SDS011;48953;53.110;5.592;2023-07-24T03:43:41;10.00;;;4.45;;
62861;SDS011;48953;53.110;5.592;2023-07-24T03:46:07;10.00;;;4.38;;
62861;SDS011;48953;53.110;5.592;2023-07-24T03:48:33;10.07;;;3.95;;
62861;SDS011;48953;53.110;5.592;2023-07-24T03:51:00;13.82;;;4.80;;
62861;SDS011;48953;53.110;5.592;2023-07-24T03:53:26;10.73;;;4.82;;
62861;SDS011;48953;53.110;5.592;2023-07-24T03:55:53;11.90;;;4.82;;
62861;SDS011;48953;53.110;5.592;2023-07-24T03:58:19;15.70;;;4.80;;
62861;SDS011;48953;53.110;5.592;2023-07-24T04:00:45;8.15;;;4.18;;
62861;SDS011;48953;53.110;5.592;2023-07-24T04:03:11;11.63;;;4.20;;
62861;SDS011;48953;53.110;5.592;2023-07-24T04:05:37;14.30;;;4.45;;
62861;SDS011;48953;53.110;5.592;2023-07-24T04:08:03;11.10;;;4.05;;
62861;SDS011;48953;53.110;5.592;2023-07-24T04:10:29;11.38;;;4.28;;
62861;SDS011;48953;53.110;5.592;2023-07-24T04:12:56;13.18;;;3.95;;
62861;SDS011;48953;53.110;5.592;2023-07-24T04:15:22;10.45;;;3.95;;
62861;SDS011;48953;53.110;5.592;2023-07-24T04:17:48;8.98;;;3.10;;
62861;SDS011;48953;53.110;5.592;2023-07-24T04:20:15;9.32;;;3.50;;
62861;SDS011;48953;53.110;5.592;2023-07-24T04:22:41;11.77;;;3.72;;
62861;SDS011;48953;53.110;5.592;2023-07-24T04:25:07;8.88;;;4.30;;
62861;SDS011;48953;53.110;5.592;2023-07-24T04:27:33;15.98;;;4.20;;
62861;SDS011;48953;53.110;5.592;2023-07-24T04:29:59;14.75;;;4.10;;
62861;SDS011;48953;53.110;5.592;2023-07-24T04:32:26;9.52;;;4.00;;
62861;SDS011;48953;53.110;5.592;2023-07-24T04:34:55;11.80;;;4.53;;
62861;SDS011;48953;53.110;5.592;2023-07-24T04:37:21;17.00;;;4.60;;
62861;SDS011;48953;53.110;5.592;2023-07-24T04:39:47;15.65;;;4.15;;
62861;SDS011;48953;53.110;5.592;2023-07-24T04:42:13;13.45;;;4.13;;
62861;SDS011;48953;53.110;5.592;2023-07-24T04:44:39;11.75;;;4.03;;
62861;SDS011;48953;53.110;5.592;2023-07-24T04:47:05;9.32;;;4.07;;
62861;SDS011;48953;53.110;5.592;2023-07-24T04:49:31;12.80;;;4.20;;
62861;SDS011;48953;53.110;5.592;2023-07-24T04:51:58;14.18;;;4.40;;
62861;SDS011;48953;53.110;5.592;2023-07-24T04:54:24;9.75;;;4.68;;
62861;SDS011;48953;53.110;5.592;2023-07-24T04:56:50;14.55;;;4.60;;
62861;SDS011;48953;53.110;5.592;2023-07-24T04:59:16;12.23;;;4.30;;
62861;SDS011;48953;53.110;5.592;2023-07-24T05:01:42;9.70;;;4.65;;
62861;SDS011;48953;53.110;5.592;2023-07-24T05:04:08;8.93;;;3.72;;
62861;SDS011;48953;53.110;5.592;2023-07-24T05:06:34;15.35;;;4.78;;
62861;SDS011;48953;53.110;5.592;2023-07-24T05:09:02;11.20;;;4.10;;
62861;SDS011;48953;53.110;5.592;2023-07-24T05:11:28;12.18;;;4.63;;
62861;SDS011;48953;53.110;5.592;2023-07-24T05:13:55;13.25;;;4.78;;
62861;SDS011;48953;53.110;5.592;2023-07-24T05:16:20;13.68;;;5.05;;
62861;SDS011;48953;53.110;5.592;2023-07-24T05:18:46;14.68;;;4.70;;
62861;SDS011;48953;53.110;5.592;2023-07-24T05:21:12;13.38;;;4.50;;
62861;SDS011;48953;53.110;5.592;2023-07-24T05:23:38;11.98;;;4.53;;
62861;SDS011;48953;53.110;5.592;2023-07-24T05:26:04;14.73;;;4.93;;
62861;SDS011;48953;53.110;5.592;2023-07-24T05:28:31;15.48;;;4.55;;
62861;SDS011;48953;53.110;5.592;2023-07-24T05:31:00;11.95;;;4.57;;
62861;SDS011;48953;53.110;5.592;2023-07-24T05:33:27;11.68;;;4.45;;
62861;SDS011;48953;53.110;5.592;2023-07-24T05:36:03;14.50;;;4.82;;
62861;SDS011;48953;53.110;5.592;2023-07-24T05:38:29;14.60;;;4.90;;
62861;SDS011;48953;53.110;5.592;2023-07-24T05:40:56;15.45;;;4.72;;
62861;SDS011;48953;53.110;5.592;2023-07-24T05:43:22;12.68;;;5.32;;
62861;SDS011;48953;53.110;5.592;2023-07-24T05:45:50;14.90;;;5.70;;
62861;SDS011;48953;53.110;5.592;2023-07-24T05:48:16;16.65;;;5.70;;
62861;SDS011;48953;53.110;5.592;2023-07-24T05:50:42;15.75;;;5.70;;
62861;SDS011;48953;53.110;5.592;2023-07-24T05:53:08;13.25;;;5.47;;
62861;SDS011;48953;53.110;5.592;2023-07-24T05:55:34;17.77;;;6.15;;
62861;SDS011;48953;53.110;5.592;2023-07-24T05:58:00;17.25;;;5.95;;
62861;SDS011;48953;53.110;5.592;2023-07-24T06:00:26;13.93;;;4.60;;
62861;SDS011;48953;53.110;5.592;2023-07-24T06:02:52;15.93;;;5.57;;
62861;SDS011;48953;53.110;5.592;2023-07-24T06:05:19;9.80;;;5.25;;
62861;SDS011;48953;53.110;5.592;2023-07-24T06:07:45;15.18;;;5.53;;
62861;SDS011;48953;53.110;5.592;2023-07-24T06:10:11;14.32;;;4.78;;
62861;SDS011;48953;53.110;5.592;2023-07-24T06:12:38;14.82;;;5.45;;
62861;SDS011;48953;53.110;5.592;2023-07-24T06:15:04;16.73;;;5.90;;
62861;SDS011;48953;53.110;5.592;2023-07-24T06:17:30;15.57;;;4.93;;
62861;SDS011;48953;53.110;5.592;2023-07-24T06:19:56;14.48;;;4.43;;
62861;SDS011;48953;53.110;5.592;2023-07-24T06:22:22;13.80;;;5.18;;
62861;SDS011;48953;53.110;5.592;2023-07-24T06:24:48;12.98;;;5.07;;
62861;SDS011;48953;53.110;5.592;2023-07-24T06:27:15;15.52;;;4.85;;
62861;SDS011;48953;53.110;5.592;2023-07-24T06:29:41;15.70;;;5.07;;
62861;SDS011;48953;53.110;5.592;2023-07-24T06:32:07;12.82;;;4.53;;
62861;SDS011;48953;53.110;5.592;2023-07-24T06:34:33;12.48;;;4.88;;
62861;SDS011;48953;53.110;5.592;2023-07-24T06:37:00;9.07;;;4.88;;
62861;SDS011;48953;53.110;5.592;2023-07-24T06:39:26;13.23;;;5.13;;
62861;SDS011;48953;53.110;5.592;2023-07-24T06:41:53;12.13;;;4.93;;
62861;SDS011;48953;53.110;5.592;2023-07-24T06:44:19;10.70;;;4.97;;
62861;SDS011;48953;53.110;5.592;2023-07-24T06:46:45;13.40;;;5.03;;
62861;SDS011;48953;53.110;5.592;2023-07-24T06:49:11;12.20;;;5.13;;
62861;SDS011;48953;53.110;5.592;2023-07-24T06:51:37;14.60;;;3.95;;
62861;SDS011;48953;53.110;5.592;2023-07-24T06:54:04;13.23;;;4.82;;
62861;SDS011;48953;53.110;5.592;2023-07-24T06:56:30;15.20;;;5.20;;
62861;SDS011;48953;53.110;5.592;2023-07-24T06:58:56;10.38;;;4.60;;
62861;SDS011;48953;53.110;5.592;2023-07-24T07:01:22;14.75;;;4.50;;
62861;SDS011;48953;53.110;5.592;2023-07-24T07:03:48;12.02;;;4.38;;
62861;SDS011;48953;53.110;5.592;2023-07-24T07:06:14;11.32;;;4.68;;
62861;SDS011;48953;53.110;5.592;2023-07-24T07:08:40;13.70;;;5.05;;
62861;SDS011;48953;53.110;5.592;2023-07-24T07:11:06;15.57;;;4.80;;
62861;SDS011;48953;53.110;5.592;2023-07-24T07:13:32;9.13;;;4.38;;
62861;SDS011;48953;53.110;5.592;2023-07-24T07:15:58;10.48;;;3.80;;
62861;SDS011;48953;53.110;5.592;2023-07-24T07:18:24;12.27;;;5.05;;
62861;SDS011;48953;53.110;5.592;2023-07-24T07:20:51;11.55;;;4.60;;
62861;SDS011;48953;53.110;5.592;2023-07-24T07:23:17;11.70;;;4.57;;
62861;SDS011;48953;53.110;5.592;2023-07-24T07:25:43;7.53;;;4.28;;
62861;SDS011;48953;53.110;5.592;2023-07-24T07:28:10;9.70;;;4.68;;
62861;SDS011;48953;53.110;5.592;2023-07-24T07:30:37;12.10;;;4.80;;
62861;SDS011;48953;53.110;5.592;2023-07-24T07:33:02;9.50;;;4.50;;
62861;SDS011;48953;53.110;5.592;2023-07-24T07:35:31;11.82;;;4.38;;
62861;SDS011;48953;53.110;5.592;2023-07-24T07:37:57;10.77;;;4.63;;
62861;SDS011;48953;53.110;5.592;2023-07-24T07:40:23;13.35;;;4.65;;
62861;SDS011;48953;53.110;5.592;2023-07-24T07:42:49;7.97;;;4.28;;
62861;SDS011;48953;53.110;5.592;2023-07-24T07:45:15;9.02;;;4.60;;
62861;SDS011;48953;53.110;5.592;2023-07-24T07:47:41;10.48;;;4.63;;
62861;SDS011;48953;53.110;5.592;2023-07-24T07:50:07;12.82;;;4.30;;
62861;SDS011;48953;53.110;5.592;2023-07-24T07:52:33;10.43;;;4.68;;
62861;SDS011;48953;53.110;5.592;2023-07-24T07:55:00;15.82;;;5.32;;
62861;SDS011;48953;53.110;5.592;2023-07-24T07:57:26;10.77;;;4.88;;
62861;SDS011;48953;53.110;5.592;2023-07-24T07:59:52;10.38;;;4.82;;
62861;SDS011;48953;53.110;5.592;2023-07-24T08:02:18;12.32;;;5.35;;
62861;SDS011;48953;53.110;5.592;2023-07-24T08:04:44;17.80;;;5.32;;
62861;SDS011;48953;53.110;5.592;2023-07-24T08:07:10;15.45;;;6.13;;
62861;SDS011;48953;53.110;5.592;2023-07-24T08:09:36;13.65;;;5.55;;
62861;SDS011;48953;53.110;5.592;2023-07-24T08:12:03;24.08;;;6.30;;
62861;SDS011;48953;53.110;5.592;2023-07-24T08:14:29;43.05;;;7.53;;
62861;SDS011;48953;53.110;5.592;2023-07-24T08:16:55;18.27;;;6.47;;
62861;SDS011;48953;53.110;5.592;2023-07-24T08:19:21;17.98;;;6.70;;
62861;SDS011;48953;53.110;5.592;2023-07-24T08:21:47;12.75;;;6.03;;
62861;SDS011;48953;53.110;5.592;2023-07-24T08:24:13;11.90;;;6.60;;
62861;SDS011;48953;53.110;5.592;2023-07-24T08:26:39;10.88;;;6.40;;
62861;SDS011;48953;53.110;5.592;2023-07-24T08:29:05;10.25;;;6.57;;
62861;SDS011;48953;53.110;5.592;2023-07-24T08:31:31;11.65;;;7.65;;
62861;SDS011;48953;53.110;5.592;2023-07-24T08:33:57;12.07;;;7.22;;
62861;SDS011;48953;53.110;5.592;2023-07-24T08:36:23;9.80;;;7.90;;
62861;SDS011;48953;53.110;5.592;2023-07-24T08:38:49;9.82;;;7.18;;
62861;SDS011;48953;53.110;5.592;2023-07-24T08:41:15;11.85;;;8.35;;
62861;SDS011;48953;53.110;5.592;2023-07-24T08:43:42;11.52;;;8.18;;
62861;SDS011;48953;53.110;5.592;2023-07-24T08:46:08;9.98;;;7.90;;
62861;SDS011;48953;53.110;5.592;2023-07-24T08:48:35;9.15;;;7.57;;
62861;SDS011;48953;53.110;5.592;2023-07-24T08:51:02;10.38;;;7.90;;
62861;SDS011;48953;53.110;5.592;2023-07-24T08:53:28;9.23;;;7.20;;
62861;SDS011;48953;53.110;5.592;2023-07-24T08:55:55;10.25;;;7.70;;
62861;SDS011;48953;53.110;5.592;2023-07-24T08:58:21;11.65;;;7.50;;
62861;SDS011;48953;53.110;5.592;2023-07-24T09:00:47;8.65;;;7.05;;
62861;SDS011;48953;53.110;5.592;2023-07-24T09:03:13;9.40;;;6.72;;
62861;SDS011;48953;53.110;5.592;2023-07-24T09:05:39;9.63;;;7.05;;
62861;SDS011;48953;53.110;5.592;2023-07-24T09:08:06;13.05;;;7.15;;
62861;SDS011;48953;53.110;5.592;2023-07-24T09:10:32;7.43;;;6.63;;
62861;SDS011;48953;53.110;5.592;2023-07-24T09:12:58;7.57;;;6.72;;
62861;SDS011;48953;53.110;5.592;2023-07-24T09:15:24;7.10;;;6.32;;
62861;SDS011;48953;53.110;5.592;2023-07-24T09:17:50;7.93;;;5.93;;
62861;SDS011;48953;53.110;5.592;2023-07-24T09:20:17;9.02;;;6.18;;
62861;SDS011;48953;53.110;5.592;2023-07-24T09:22:50;8.52;;;5.30;;
62861;SDS011;48953;53.110;5.592;2023-07-24T09:25:16;8.20;;;4.55;;
62861;SDS011;48953;53.110;5.592;2023-07-24T09:27:42;7.30;;;6.55;;
62861;SDS011;48953;53.110;5.592;2023-07-24T09:30:12;9.63;;;6.10;;
62861;SDS011;48953;53.110;5.592;2023-07-24T09:32:39;8.63;;;5.95;;
62861;SDS011;48953;53.110;5.592;2023-07-24T09:35:26;7.80;;;6.50;;
62861;SDS011;48953;53.110;5.592;2023-07-24T09:38:03;7.20;;;5.57;;
62861;SDS011;48953;53.110;5.592;2023-07-24T09:40:37;7.72;;;5.95;;
62861;SDS011;48953;53.110;5.592;2023-07-24T09:43:03;6.90;;;4.90;;
62861;SDS011;48953;53.110;5.592;2023-07-24T09:45:29;7.97;;;5.30;;
62861;SDS011;48953;53.110;5.592;2023-07-24T09:47:55;7.05;;;5.53;;
62861;SDS011;48953;53.110;5.592;2023-07-24T09:52:51;8.02;;;6.03;;
62861;SDS011;48953;53.110;5.592;2023-07-24T09:55:25;5.63;;;5.07;;
62861;SDS011;48953;53.110;5.592;2023-07-24T09:57:54;6.60;;;5.45;;
62861;SDS011;48953;53.110;5.592;2023-07-24T10:00:20;8.02;;;5.95;;
62861;SDS011;48953;53.110;5.592;2023-07-24T10:02:46;6.65;;;5.32;;
62861;SDS011;48953;53.110;5.592;2023-07-24T10:05:13;6.30;;;4.95;;
62861;SDS011;48953;53.110;5.592;2023-07-24T10:07:39;5.70;;;5.07;;
62861;SDS011;48953;53.110;5.592;2023-07-24T10:10:06;6.03;;;4.80;;
62861;SDS011;48953;53.110;5.592;2023-07-24T10:12:32;6.97;;;5.30;;
62861;SDS011;48953;53.110;5.592;2023-07-24T10:14:59;6.10;;;4.80;;
62861;SDS011;48953;53.110;5.592;2023-07-24T10:17:35;7.60;;;5.35;;
62861;SDS011;48953;53.110;5.592;2023-07-24T10:20:03;6.07;;;4.63;;
62861;SDS011;48953;53.110;5.592;2023-07-24T10:22:29;6.68;;;5.25;;
62861;SDS011;48953;53.110;5.592;2023-07-24T10:24:55;5.75;;;4.70;;
62861;SDS011;48953;53.110;5.592;2023-07-24T10:27:25;6.75;;;4.75;;
62861;SDS011;48953;53.110;5.592;2023-07-24T10:30:02;5.65;;;4.88;;
62861;SDS011;48953;53.110;5.592;2023-07-24T10:32:29;7.05;;;4.97;;
62861;SDS011;48953;53.110;5.592;2023-07-24T10:35:00;5.70;;;5.18;;
62861;SDS011;48953;53.110;5.592;2023-07-24T10:37:36;5.93;;;4.70;;
62861;SDS011;48953;53.110;5.592;2023-07-24T10:40:03;5.32;;;4.75;;
62861;SDS011;48953;53.110;5.592;2023-07-24T10:42:29;5.38;;;4.68;;
62861;SDS011;48953;53.110;5.592;2023-07-24T10:45:13;8.20;;;5.25;;
62861;SDS011;48953;53.110;5.592;2023-07-24T10:47:39;7.25;;;4.18;;
62861;SDS011;48953;53.110;5.592;2023-07-24T10:50:05;6.47;;;4.60;;
62861;SDS011;48953;53.110;5.592;2023-07-24T10:52:32;5.28;;;4.78;;
62861;SDS011;48953;53.110;5.592;2023-07-24T10:55:02;10.48;;;4.90;;
62861;SDS011;48953;53.110;5.592;2023-07-24T10:57:31;5.45;;;4.32;;
62861;SDS011;48953;53.110;5.592;2023-07-24T11:00:04;6.53;;;4.45;;
62861;SDS011;48953;53.110;5.592;2023-07-24T11:02:30;5.50;;;4.22;;
62861;SDS011;48953;53.110;5.592;2023-07-24T11:04:58;5.25;;;4.75;;
62861;SDS011;48953;53.110;5.592;2023-07-24T11:07:25;6.22;;;5.13;;
62861;SDS011;48953;53.110;5.592;2023-07-24T11:09:51;5.65;;;4.93;;
62861;SDS011;48953;53.110;5.592;2023-07-24T11:12:18;5.68;;;3.70;;
62861;SDS011;48953;53.110;5.592;2023-07-24T11:17:13;7.05;;;4.13;;
62861;SDS011;48953;53.110;5.592;2023-07-24T11:19:39;4.43;;;3.85;;
62861;SDS011;48953;53.110;5.592;2023-07-24T11:22:05;2.85;;;2.60;;
62861;SDS011;48953;53.110;5.592;2023-07-24T11:24:32;3.17;;;2.80;;
62861;SDS011;48953;53.110;5.592;2023-07-24T11:26:58;2.78;;;2.20;;
62861;SDS011;48953;53.110;5.592;2023-07-24T11:29:24;6.05;;;2.30;;
62861;SDS011;48953;53.110;5.592;2023-07-24T11:31:53;3.67;;;2.70;;
62861;SDS011;48953;53.110;5.592;2023-07-24T11:34:21;3.60;;;2.10;;
62861;SDS011;48953;53.110;5.592;2023-07-24T11:36:47;3.08;;;2.42;;
62861;SDS011;48953;53.110;5.592;2023-07-24T11:39:13;3.25;;;1.65;;
62861;SDS011;48953;53.110;5.592;2023-07-24T11:41:39;1.60;;;1.40;;
62861;SDS011;48953;53.110;5.592;2023-07-24T11:44:05;1.52;;;1.25;;
62861;SDS011;48953;53.110;5.592;2023-07-24T11:46:31;3.17;;;1.50;;
62861;SDS011;48953;53.110;5.592;2023-07-24T11:48:57;1.10;;;1.00;;
62861;SDS011;48953;53.110;5.592;2023-07-24T11:51:26;2.08;;;1.20;;
62861;SDS011;48953;53.110;5.592;2023-07-24T11:53:52;1.55;;;0.80;;
62861;SDS011;48953;53.110;5.592;2023-07-24T11:56:19;1.20;;;0.80;;
62861;SDS011;48953;53.110;5.592;2023-07-24T11:58:46;1.05;;;0.65;;
62861;SDS011;48953;53.110;5.592;2023-07-24T12:01:12;0.88;;;0.73;;
62861;SDS011;48953;53.110;5.592;2023-07-24T12:03:39;1.10;;;0.80;;
62861;SDS011;48953;53.110;5.592;2023-07-24T12:06:13;0.98;;;0.88;;
62861;SDS011;48953;53.110;5.592;2023-07-24T12:08:39;1.58;;;1.00;;
62861;SDS011;48953;53.110;5.592;2023-07-24T12:11:15;1.13;;;0.90;;
62861;SDS011;48953;53.110;5.592;2023-07-24T12:13:41;2.90;;;0.98;;
62861;SDS011;48953;53.110;5.592;2023-07-24T12:16:07;3.92;;;0.98;;
62861;SDS011;48953;53.110;5.592;2023-07-24T12:18:33;2.33;;;0.90;;
62861;SDS011;48953;53.110;5.592;2023-07-24T12:21:00;3.45;;;1.10;;
62861;SDS011;48953;53.110;5.592;2023-07-24T12:23:26;3.45;;;0.95;;
62861;SDS011;48953;53.110;5.592;2023-07-24T12:25:52;1.42;;;0.98;;
62861;SDS011;48953;53.110;5.592;2023-07-24T12:28:18;2.30;;;0.70;;
62861;SDS011;48953;53.110;5.592;2023-07-24T12:30:44;2.17;;;0.90;;
62861;SDS011;48953;53.110;5.592;2023-07-24T12:33:10;2.60;;;0.68;;
62861;SDS011;48953;53.110;5.592;2023-07-24T12:35:36;1.88;;;0.80;;
62861;SDS011;48953;53.110;5.592;2023-07-24T12:38:02;1.42;;;0.73;;
62861;SDS011;48953;53.110;5.592;2023-07-24T12:40:28;3.10;;;0.65;;
62861;SDS011;48953;53.110;5.592;2023-07-24T12:42:54;2.83;;;0.73;;
62861;SDS011;48953;53.110;5.592;2023-07-24T12:45:20;1.67;;;0.50;;
62861;SDS011;48953;53.110;5.592;2023-07-24T12:47:46;3.08;;;0.70;;
62861;SDS011;48953;53.110;5.592;2023-07-24T12:50:12;3.90;;;0.88;;
62861;SDS011;48953;53.110;5.592;2023-07-24T12:52:38;6.20;;;0.63;;
62861;SDS011;48953;53.110;5.592;2023-07-24T12:55:04;2.30;;;0.80;;
62861;SDS011;48953;53.110;5.592;2023-07-24T12:57:30;1.63;;;0.70;;
62861;SDS011;48953;53.110;5.592;2023-07-24T12:59:56;1.17;;;0.70;;
62861;SDS011;48953;53.110;5.592;2023-07-24T13:02:22;2.75;;;0.70;;
62861;SDS011;48953;53.110;5.592;2023-07-24T13:04:49;2.92;;;0.80;;
62861;SDS011;48953;53.110;5.592;2023-07-24T13:07:15;3.17;;;0.63;;
62861;SDS011;48953;53.110;5.592;2023-07-24T13:09:41;3.33;;;0.75;;
62861;SDS011;48953;53.110;5.592;2023-07-24T13:12:08;1.70;;;0.77;;
62861;SDS011;48953;53.110;5.592;2023-07-24T13:14:34;1.13;;;0.55;;
62861;SDS011;48953;53.110;5.592;2023-07-24T13:17:00;3.28;;;0.50;;
62861;SDS011;48953;53.110;5.592;2023-07-24T13:19:26;1.83;;;0.40;;
62861;SDS011;48953;53.110;5.592;2023-07-24T13:21:52;3.63;;;0.57;;
62861;SDS011;48953;53.110;5.592;2023-07-24T13:24:18;1.45;;;0.60;;
62861;SDS011;48953;53.110;5.592;2023-07-24T13:26:44;2.30;;;0.30;;
62861;SDS011;48953;53.110;5.592;2023-07-24T13:29:10;2.22;;;0.73;;
62861;SDS011;48953;53.110;5.592;2023-07-24T13:31:36;4.03;;;0.80;;
62861;SDS011;48953;53.110;5.592;2023-07-24T13:34:02;2.25;;;0.55;;
62861;SDS011;48953;53.110;5.592;2023-07-24T13:36:28;2.28;;;0.70;;
62861;SDS011;48953;53.110;5.592;2023-07-24T13:38:54;2.80;;;0.80;;
62861;SDS011;48953;53.110;5.592;2023-07-24T13:41:20;1.70;;;0.90;;
62861;SDS011;48953;53.110;5.592;2023-07-24T13:43:46;5.25;;;1.90;;
62861;SDS011;48953;53.110;5.592;2023-07-24T13:46:12;4.13;;;1.30;;
62861;SDS011;48953;53.110;5.592;2023-07-24T13:48:38;8.02;;;1.13;;
62861;SDS011;48953;53.110;5.592;2023-07-24T13:51:04;2.10;;;0.88;;
62861;SDS011;48953;53.110;5.592;2023-07-24T13:53:30;2.65;;;1.05;;
62861;SDS011;48953;53.110;5.592;2023-07-24T13:55:56;6.53;;;1.75;;
62861;SDS011;48953;53.110;5.592;2023-07-24T13:58:22;4.63;;;1.88;;
62861;SDS011;48953;53.110;5.592;2023-07-24T14:00:48;1.42;;;1.33;;
62861;SDS011;48953;53.110;5.592;2023-07-24T14:03:14;5.53;;;1.05;;
62861;SDS011;48953;53.110;5.592;2023-07-24T14:05:40;3.45;;;1.17;;
62861;SDS011;48953;53.110;5.592;2023-07-24T14:08:07;5.90;;;1.02;;
62861;SDS011;48953;53.110;5.592;2023-07-24T14:10:33;4.75;;;1.58;;
62861;SDS011;48953;53.110;5.592;2023-07-24T14:13:05;5.10;;;1.27;;
62861;SDS011;48953;53.110;5.592;2023-07-24T14:15:31;1.77;;;1.10;;
62861;SDS011;48953;53.110;5.592;2023-07-24T14:17:58;8.57;;;2.35;;
62861;SDS011;48953;53.110;5.592;2023-07-24T14:20:24;8.32;;;2.05;;
62861;SDS011;48953;53.110;5.592;2023-07-24T14:22:50;3.60;;;1.20;;
62861;SDS011;48953;53.110;5.592;2023-07-24T14:25:16;3.50;;;1.30;;
62861;SDS011;48953;53.110;5.592;2023-07-24T14:27:42;4.60;;;1.25;;
62861;SDS011;48953;53.110;5.592;2023-07-24T14:30:08;4.45;;;1.30;;
62861;SDS011;48953;53.110;5.592;2023-07-24T14:32:35;3.70;;;1.38;;
62861;SDS011;48953;53.110;5.592;2023-07-24T14:35:01;3.47;;;1.42;;
62861;SDS011;48953;53.110;5.592;2023-07-24T14:37:27;3.40;;;1.42;;
62861;SDS011;48953;53.110;5.592;2023-07-24T14:39:53;2.90;;;1.65;;
62861;SDS011;48953;53.110;5.592;2023-07-24T14:42:19;3.28;;;1.50;;